sensor_id;sensor_type;location;lat;lon;timestamp;temperature;humidity
21302;DHT22;10810;48.270;9.996;2023-05-07T00:02:48;12.30;99.90
21302;DHT22;10810;48.270;9.996;2023-05-07T00:05:49;12.30;99.90
21302;DHT22;10810;48.270;9.996;2023-05-07T00:08:59;12.30;99.90
21302;DHT22;10810;48.270;9.996;2023-05-07T00:11:37;12.30;99.90
21302;DHT22;10810;48.270;9.996;2023-05-07T00:17:42;12.20;99.90
21302;DHT22;10810;48.270;9.996;2023-05-07T00:24:23;12.10;99.90
21302;DHT22;10810;48.270;9.996;2023-05-07T00:26:43;12.20;99.90
21302;DHT22;10810;48.270;9.996;2023-05-07T00:29:26;12.20;99.90
21302;DHT22;10810;48.270;9.996;2023-05-07T00:32:14;12.30;99.90
21302;DHT22;10810;48.270;9.996;2023-05-07T00:34:44;12.10;99.90
21302;DHT22;10810;48.270;9.996;2023-05-07T00:37:42;12.10;99.90
21302;DHT22;10810;48.270;9.996;2023-05-07T00:43:12;12.00;99.90
21302;DHT22;10810;48.270;9.996;2023-05-07T00:45:39;12.00;99.90
21302;DHT22;10810;48.270;9.996;2023-05-07T00:48:44;11.60;99.90
21302;DHT22;10810;48.270;9.996;2023-05-07T00:51:31;11.40;99.90
21302;DHT22;10810;48.270;9.996;2023-05-07T00:54:17;11.40;99.90
21302;DHT22;10810;48.270;9.996;2023-05-07T00:56:47;11.50;99.90
21302;DHT22;10810;48.270;9.996;2023-05-07T01:02:53;11.50;99.90
21302;DHT22;10810;48.270;9.996;2023-05-07T01:05:53;11.80;99.90
21302;DHT22;10810;48.270;9.996;2023-05-07T01:08:38;12.00;99.90
21302;DHT22;10810;48.270;9.996;2023-05-07T01:11:22;12.00;99.90
21302;DHT22;10810;48.270;9.996;2023-05-07T01:14:12;12.10;99.90
21302;DHT22;10810;48.270;9.996;2023-05-07T01:16:50;12.00;99.90
21302;DHT22;10810;48.270;9.996;2023-05-07T01:19:35;11.90;99.90
21302;DHT22;10810;48.270;9.996;2023-05-07T01:22:28;11.90;99.90
21302;DHT22;10810;48.270;9.996;2023-05-07T01:25:02;11.90;99.90
21302;DHT22;10810;48.270;9.996;2023-05-07T01:27:49;11.70;99.90
21302;DHT22;10810;48.270;9.996;2023-05-07T01:30:34;11.70;99.90
21302;DHT22;10810;48.270;9.996;2023-05-07T01:33:20;11.70;99.90
21302;DHT22;10810;48.270;9.996;2023-05-07T01:36:09;11.50;99.90
21302;DHT22;10810;48.270;9.996;2023-05-07T01:38:47;11.70;99.90
21302;DHT22;10810;48.270;9.996;2023-05-07T01:41:18;11.70;99.90
21302;DHT22;10810;48.270;9.996;2023-05-07T01:43:49;11.60;99.90
21302;DHT22;10810;48.270;9.996;2023-05-07T01:46:17;11.60;99.90
21302;DHT22;10810;48.270;9.996;2023-05-07T01:48:49;11.70;99.90
21302;DHT22;10810;48.270;9.996;2023-05-07T01:51:19;11.70;99.90
21302;DHT22;10810;48.270;9.996;2023-05-07T01:54:04;11.70;99.90
21302;DHT22;10810;48.270;9.996;2023-05-07T01:56:55;11.70;99.90
21302;DHT22;10810;48.270;9.996;2023-05-07T01:59:43;11.70;99.90
21302;DHT22;10810;48.270;9.996;2023-05-07T02:02:20;11.70;99.90
21302;DHT22;10810;48.270;9.996;2023-05-07T02:04:58;11.70;99.90
21302;DHT22;10810;48.270;9.996;2023-05-07T02:07:27;11.50;99.90
21302;DHT22;10810;48.270;9.996;2023-05-07T02:10:02;11.60;99.90
21302;DHT22;10810;48.270;9.996;2023-05-07T02:12:47;11.60;99.90
21302;DHT22;10810;48.270;9.996;2023-05-07T02:15:35;11.50;99.90
21302;DHT22;10810;48.270;9.996;2023-05-07T02:21:00;11.40;99.90
21302;DHT22;10810;48.270;9.996;2023-05-07T02:23:29;11.50;99.90
21302;DHT22;10810;48.270;9.996;2023-05-07T02:26:17;11.60;99.90
21302;DHT22;10810;48.270;9.996;2023-05-07T02:28:54;11.50;99.90
21302;DHT22;10810;48.270;9.996;2023-05-07T02:34:24;11.30;99.90
21302;DHT22;10810;48.270;9.996;2023-05-07T02:36:53;11.20;99.90
21302;DHT22;10810;48.270;9.996;2023-05-07T02:39:34;11.30;99.90
21302;DHT22;10810;48.270;9.996;2023-05-07T02:42:32;11.30;99.90
21302;DHT22;10810;48.270;9.996;2023-05-07T02:45:05;11.30;99.90
21302;DHT22;10810;48.270;9.996;2023-05-07T02:48:11;11.20;99.90
21302;DHT22;10810;48.270;9.996;2023-05-07T02:50:55;11.20;99.90
21302;DHT22;10810;48.270;9.996;2023-05-07T02:53:47;11.30;99.90
21302;DHT22;10810;48.270;9.996;2023-05-07T02:56:20;11.40;99.90
21302;DHT22;10810;48.270;9.996;2023-05-07T02:59:09;11.40;99.90
21302;DHT22;10810;48.270;9.996;2023-05-07T03:01:37;11.30;99.90
21302;DHT22;10810;48.270;9.996;2023-05-07T03:04:24;11.20;99.90
21302;DHT22;10810;48.270;9.996;2023-05-07T03:07:10;11.10;99.90
21302;DHT22;10810;48.270;9.996;2023-05-07T03:09:38;11.10;99.90
21302;DHT22;10810;48.270;9.996;2023-05-07T03:12:05;11.00;99.90
21302;DHT22;10810;48.270;9.996;2023-05-07T03:14:34;11.00;99.90
21302;DHT22;10810;48.270;9.996;2023-05-07T03:17:04;11.00;99.90
21302;DHT22;10810;48.270;9.996;2023-05-07T03:20:20;11.00;99.90
21302;DHT22;10810;48.270;9.996;2023-05-07T03:23:04;11.00;99.90
21302;DHT22;10810;48.270;9.996;2023-05-07T03:25:41;11.00;99.90
21302;DHT22;10810;48.270;9.996;2023-05-07T03:28:24;10.90;99.90
21302;DHT22;10810;48.270;9.996;2023-05-07T03:30:58;10.90;99.90
21302;DHT22;10810;48.270;9.996;2023-05-07T03:33:27;11.00;99.90
21302;DHT22;10810;48.270;9.996;2023-05-07T03:35:58;11.10;99.90
21302;DHT22;10810;48.270;9.996;2023-05-07T03:38:57;11.10;99.90
21302;DHT22;10810;48.270;9.996;2023-05-07T03:41:36;11.00;99.90
21302;DHT22;10810;48.270;9.996;2023-05-07T03:44:05;10.90;99.90
21302;DHT22;10810;48.270;9.996;2023-05-07T03:46:44;10.90;99.90
21302;DHT22;10810;48.270;9.996;2023-05-07T03:49:53;10.90;99.90
21302;DHT22;10810;48.270;9.996;2023-05-07T03:52:29;10.90;99.90
21302;DHT22;10810;48.270;9.996;2023-05-07T03:55:05;10.90;99.90
21302;DHT22;10810;48.270;9.996;2023-05-07T03:57:48;10.90;99.90
21302;DHT22;10810;48.270;9.996;2023-05-07T04:00:31;10.80;99.90
21302;DHT22;10810;48.270;9.996;2023-05-07T04:03:13;10.80;99.90
21302;DHT22;10810;48.270;9.996;2023-05-07T04:06:01;10.70;99.90
21302;DHT22;10810;48.270;9.996;2023-05-07T04:08:40;10.70;99.90
21302;DHT22;10810;48.270;9.996;2023-05-07T04:11:21;10.60;99.90
21302;DHT22;10810;48.270;9.996;2023-05-07T04:14:08;10.60;99.90
21302;DHT22;10810;48.270;9.996;2023-05-07T04:16:37;10.60;99.90
21302;DHT22;10810;48.270;9.996;2023-05-07T04:19:26;10.70;99.90
21302;DHT22;10810;48.270;9.996;2023-05-07T04:22:00;10.80;99.90
21302;DHT22;10810;48.270;9.996;2023-05-07T04:24:39;10.70;99.90
21302;DHT22;10810;48.270;9.996;2023-05-07T04:27:09;10.70;99.90
21302;DHT22;10810;48.270;9.996;2023-05-07T04:29:56;10.60;99.90
21302;DHT22;10810;48.270;9.996;2023-05-07T04:32:39;10.70;99.90
21302;DHT22;10810;48.270;9.996;2023-05-07T04:35:17;10.80;99.90
21302;DHT22;10810;48.270;9.996;2023-05-07T04:37:44;10.80;99.90
21302;DHT22;10810;48.270;9.996;2023-05-07T04:40:11;10.90;99.90
21302;DHT22;10810;48.270;9.996;2023-05-07T04:42:38;10.90;99.90
21302;DHT22;10810;48.270;9.996;2023-05-07T04:45:06;10.90;99.90
21302;DHT22;10810;48.270;9.996;2023-05-07T04:47:34;10.90;99.90
21302;DHT22;10810;48.270;9.996;2023-05-07T04:50:01;10.90;99.90
21302;DHT22;10810;48.270;9.996;2023-05-07T04:52:35;10.90;99.90
21302;DHT22;10810;48.270;9.996;2023-05-07T04:55:04;10.90;99.90
21302;DHT22;10810;48.270;9.996;2023-05-07T04:57:31;10.90;99.90
21302;DHT22;10810;48.270;9.996;2023-05-07T05:00:09;10.90;99.90
21302;DHT22;10810;48.270;9.996;2023-05-07T05:02:36;11.00;99.90
21302;DHT22;10810;48.270;9.996;2023-05-07T05:05:03;11.00;99.90
21302;DHT22;10810;48.270;9.996;2023-05-07T05:07:32;11.00;99.90
21302;DHT22;10810;48.270;9.996;2023-05-07T05:09:59;11.10;99.90
21302;DHT22;10810;48.270;9.996;2023-05-07T05:12:26;11.20;99.90
21302;DHT22;10810;48.270;9.996;2023-05-07T05:14:56;11.40;99.90
21302;DHT22;10810;48.270;9.996;2023-05-07T05:17:26;11.50;99.90
21302;DHT22;10810;48.270;9.996;2023-05-07T05:19:53;11.60;99.90
21302;DHT22;10810;48.270;9.996;2023-05-07T05:22:20;11.50;99.90
21302;DHT22;10810;48.270;9.996;2023-05-07T05:24:48;11.70;99.90
21302;DHT22;10810;48.270;9.996;2023-05-07T05:27:15;11.70;99.90
21302;DHT22;10810;48.270;9.996;2023-05-07T05:29:42;11.80;99.90
21302;DHT22;10810;48.270;9.996;2023-05-07T05:32:09;11.90;99.90
21302;DHT22;10810;48.270;9.996;2023-05-07T05:34:36;11.90;99.90
21302;DHT22;10810;48.270;9.996;2023-05-07T05:37:03;11.90;99.90
21302;DHT22;10810;48.270;9.996;2023-05-07T05:39:30;11.90;99.90
21302;DHT22;10810;48.270;9.996;2023-05-07T05:41:59;12.10;99.90
21302;DHT22;10810;48.270;9.996;2023-05-07T05:44:28;12.30;99.90
21302;DHT22;10810;48.270;9.996;2023-05-07T05:47:02;12.50;99.90
21302;DHT22;10810;48.270;9.996;2023-05-07T05:49:30;12.70;99.90
21302;DHT22;10810;48.270;9.996;2023-05-07T05:51:58;12.70;99.90
21302;DHT22;10810;48.270;9.996;2023-05-07T05:54:24;12.80;99.90
21302;DHT22;10810;48.270;9.996;2023-05-07T05:56:55;12.90;99.90
21302;DHT22;10810;48.270;9.996;2023-05-07T05:59:23;12.90;99.90
21302;DHT22;10810;48.270;9.996;2023-05-07T06:01:52;12.90;99.90
21302;DHT22;10810;48.270;9.996;2023-05-07T06:04:21;13.00;99.90
21302;DHT22;10810;48.270;9.996;2023-05-07T06:06:48;13.20;99.90
21302;DHT22;10810;48.270;9.996;2023-05-07T06:09:15;13.30;99.90
21302;DHT22;10810;48.270;9.996;2023-05-07T06:11:42;13.30;99.90
21302;DHT22;10810;48.270;9.996;2023-05-07T06:14:11;13.30;99.90
21302;DHT22;10810;48.270;9.996;2023-05-07T06:16:39;13.50;99.90
21302;DHT22;10810;48.270;9.996;2023-05-07T06:19:15;13.50;99.90
21302;DHT22;10810;48.270;9.996;2023-05-07T06:21:45;13.50;99.90
21302;DHT22;10810;48.270;9.996;2023-05-07T06:24:12;13.50;99.90
21302;DHT22;10810;48.270;9.996;2023-05-07T06:26:39;13.50;99.90
21302;DHT22;10810;48.270;9.996;2023-05-07T06:29:06;13.60;99.90
21302;DHT22;10810;48.270;9.996;2023-05-07T06:31:34;13.80;99.90
21302;DHT22;10810;48.270;9.996;2023-05-07T06:34:02;14.00;99.90
21302;DHT22;10810;48.270;9.996;2023-05-07T06:36:35;14.10;99.90
21302;DHT22;10810;48.270;9.996;2023-05-07T06:39:03;14.10;99.90
21302;DHT22;10810;48.270;9.996;2023-05-07T06:42:04;14.30;99.90
21302;DHT22;10810;48.270;9.996;2023-05-07T06:44:21;14.50;99.90
21302;DHT22;10810;48.270;9.996;2023-05-07T06:46:49;14.60;99.90
21302;DHT22;10810;48.270;9.996;2023-05-07T06:49:18;14.70;99.90
21302;DHT22;10810;48.270;9.996;2023-05-07T06:51:45;14.70;99.90
21302;DHT22;10810;48.270;9.996;2023-05-07T06:54:12;14.80;99.90
21302;DHT22;10810;48.270;9.996;2023-05-07T06:56:43;14.90;99.90
21302;DHT22;10810;48.270;9.996;2023-05-07T06:59:29;15.10;99.90
21302;DHT22;10810;48.270;9.996;2023-05-07T07:03:44;15.40;99.90
21302;DHT22;10810;48.270;9.996;2023-05-07T07:04:58;15.70;99.90
21302;DHT22;10810;48.270;9.996;2023-05-07T07:07:57;15.80;99.90
21302;DHT22;10810;48.270;9.996;2023-05-07T07:10:18;15.90;99.90
21302;DHT22;10810;48.270;9.996;2023-05-07T07:12:46;16.20;99.90
21302;DHT22;10810;48.270;9.996;2023-05-07T07:15:42;16.40;99.90
21302;DHT22;10810;48.270;9.996;2023-05-07T07:18:13;16.80;99.90
21302;DHT22;10810;48.270;9.996;2023-05-07T07:24:04;17.20;99.90
21302;DHT22;10810;48.270;9.996;2023-05-07T07:26:38;17.40;99.90
21302;DHT22;10810;48.270;9.996;2023-05-07T07:29:31;17.60;99.90
21302;DHT22;10810;48.270;9.996;2023-05-07T07:32:35;17.80;99.90
21302;DHT22;10810;48.270;9.996;2023-05-07T07:34:59;17.90;99.90
21302;DHT22;10810;48.270;9.996;2023-05-07T07:37:29;18.30;99.90
21302;DHT22;10810;48.270;9.996;2023-05-07T07:40:01;18.30;99.90
21302;DHT22;10810;48.270;9.996;2023-05-07T07:42:29;18.40;99.90
21302;DHT22;10810;48.270;9.996;2023-05-07T07:44:56;18.50;99.90
21302;DHT22;10810;48.270;9.996;2023-05-07T07:47:23;18.50;99.90
21302;DHT22;10810;48.270;9.996;2023-05-07T07:49:50;18.70;99.90
21302;DHT22;10810;48.270;9.996;2023-05-07T07:52:18;18.70;99.90
21302;DHT22;10810;48.270;9.996;2023-05-07T07:54:45;18.70;99.90
21302;DHT22;10810;48.270;9.996;2023-05-07T07:57:13;18.90;99.90
21302;DHT22;10810;48.270;9.996;2023-05-07T07:59:40;18.90;99.90
21302;DHT22;10810;48.270;9.996;2023-05-07T08:02:08;19.10;99.90
21302;DHT22;10810;48.270;9.996;2023-05-07T08:04:35;19.20;99.90
21302;DHT22;10810;48.270;9.996;2023-05-07T08:07:03;19.20;99.90
21302;DHT22;10810;48.270;9.996;2023-05-07T08:09:30;19.10;99.90
21302;DHT22;10810;48.270;9.996;2023-05-07T08:11:57;19.10;99.90
21302;DHT22;10810;48.270;9.996;2023-05-07T08:18:22;19.00;99.90
21302;DHT22;10810;48.270;9.996;2023-05-07T08:20:51;18.90;99.90
21302;DHT22;10810;48.270;9.996;2023-05-07T08:23:20;18.90;99.90
21302;DHT22;10810;48.270;9.996;2023-05-07T08:25:47;19.00;99.90
21302;DHT22;10810;48.270;9.996;2023-05-07T08:28:16;19.00;99.90
21302;DHT22;10810;48.270;9.996;2023-05-07T08:30:45;19.00;99.90
21302;DHT22;10810;48.270;9.996;2023-05-07T08:33:21;19.10;99.90
21302;DHT22;10810;48.270;9.996;2023-05-07T08:36:09;19.20;99.90
21302;DHT22;10810;48.270;9.996;2023-05-07T08:38:51;19.40;99.90
21302;DHT22;10810;48.270;9.996;2023-05-07T08:41:45;19.40;99.90
21302;DHT22;10810;48.270;9.996;2023-05-07T08:44:13;19.60;99.90
21302;DHT22;10810;48.270;9.996;2023-05-07T08:47:01;19.70;99.90
21302;DHT22;10810;48.270;9.996;2023-05-07T08:49:44;19.90;99.90
21302;DHT22;10810;48.270;9.996;2023-05-07T08:52:13;20.00;99.90
21302;DHT22;10810;48.270;9.996;2023-05-07T08:54:52;19.90;99.90
21302;DHT22;10810;48.270;9.996;2023-05-07T08:57:26;19.90;99.90
21302;DHT22;10810;48.270;9.996;2023-05-07T09:00:09;20.00;99.90
21302;DHT22;10810;48.270;9.996;2023-05-07T09:02:40;20.30;99.90
21302;DHT22;10810;48.270;9.996;2023-05-07T09:05:15;20.70;99.90
21302;DHT22;10810;48.270;9.996;2023-05-07T09:07:42;20.80;99.90
21302;DHT22;10810;48.270;9.996;2023-05-07T09:10:09;20.90;99.90
21302;DHT22;10810;48.270;9.996;2023-05-07T09:12:38;21.00;99.90
21302;DHT22;10810;48.270;9.996;2023-05-07T09:15:09;21.20;99.90
21302;DHT22;10810;48.270;9.996;2023-05-07T09:17:36;21.20;99.90
21302;DHT22;10810;48.270;9.996;2023-05-07T09:20:04;21.20;99.90
21302;DHT22;10810;48.270;9.996;2023-05-07T09:22:35;21.10;99.90
21302;DHT22;10810;48.270;9.996;2023-05-07T09:25:03;21.00;99.90
21302;DHT22;10810;48.270;9.996;2023-05-07T09:27:30;20.80;99.90
21302;DHT22;10810;48.270;9.996;2023-05-07T09:30:01;20.70;99.90
21302;DHT22;10810;48.270;9.996;2023-05-07T09:32:29;20.40;99.90
21302;DHT22;10810;48.270;9.996;2023-05-07T09:34:57;20.50;99.90
21302;DHT22;10810;48.270;9.996;2023-05-07T09:37:46;20.60;99.90
21302;DHT22;10810;48.270;9.996;2023-05-07T09:40:21;21.00;99.90
21302;DHT22;10810;48.270;9.996;2023-05-07T09:42:50;21.10;99.90
21302;DHT22;10810;48.270;9.996;2023-05-07T09:45:21;21.30;99.90
21302;DHT22;10810;48.270;9.996;2023-05-07T09:47:49;21.20;99.90
21302;DHT22;10810;48.270;9.996;2023-05-07T09:50:22;21.40;99.90
21302;DHT22;10810;48.270;9.996;2023-05-07T09:52:56;21.70;99.90
21302;DHT22;10810;48.270;9.996;2023-05-07T09:55:23;22.00;99.90
21302;DHT22;10810;48.270;9.996;2023-05-07T09:57:51;22.40;99.90
21302;DHT22;10810;48.270;9.996;2023-05-07T10:00:20;22.40;99.90
21302;DHT22;10810;48.270;9.996;2023-05-07T10:02:48;22.40;99.90
21302;DHT22;10810;48.270;9.996;2023-05-07T10:05:18;22.40;99.90
21302;DHT22;10810;48.270;9.996;2023-05-07T10:07:46;22.50;99.90
21302;DHT22;10810;48.270;9.996;2023-05-07T10:10:15;22.70;99.90
21302;DHT22;10810;48.270;9.996;2023-05-07T10:12:42;23.10;99.90
21302;DHT22;10810;48.270;9.996;2023-05-07T10:15:11;23.40;99.90
21302;DHT22;10810;48.270;9.996;2023-05-07T10:17:39;23.40;99.90
21302;DHT22;10810;48.270;9.996;2023-05-07T10:20:07;23.50;99.90
21302;DHT22;10810;48.270;9.996;2023-05-07T10:22:38;23.80;99.90
21302;DHT22;10810;48.270;9.996;2023-05-07T10:25:09;24.20;99.20
21302;DHT22;10810;48.270;9.996;2023-05-07T10:27:42;24.20;98.60
21302;DHT22;10810;48.270;9.996;2023-05-07T10:30:17;24.30;99.90
21302;DHT22;10810;48.270;9.996;2023-05-07T10:32:50;24.30;97.70
21302;DHT22;10810;48.270;9.996;2023-05-07T10:35:20;24.10;97.70
21302;DHT22;10810;48.270;9.996;2023-05-07T10:37:48;23.80;97.40
21302;DHT22;10810;48.270;9.996;2023-05-07T10:40:18;23.50;94.70
21302;DHT22;10810;48.270;9.996;2023-05-07T10:42:58;23.20;95.70
21302;DHT22;10810;48.270;9.996;2023-05-07T10:45:26;23.30;99.90
21302;DHT22;10810;48.270;9.996;2023-05-07T10:48:07;23.60;99.10
21302;DHT22;10810;48.270;9.996;2023-05-07T10:50:35;23.70;98.60
21302;DHT22;10810;48.270;9.996;2023-05-07T10:53:32;23.50;97.10
21302;DHT22;10810;48.270;9.996;2023-05-07T10:56:24;23.40;99.10
21302;DHT22;10810;48.270;9.996;2023-05-07T10:58:56;23.20;95.20
21302;DHT22;10810;48.270;9.996;2023-05-07T11:01:50;23.00;93.50
21302;DHT22;10810;48.270;9.996;2023-05-07T11:04:18;22.90;93.50
21302;DHT22;10810;48.270;9.996;2023-05-07T11:10:04;22.70;98.80
21302;DHT22;10810;48.270;9.996;2023-05-07T11:12:53;23.00;99.60
21302;DHT22;10810;48.270;9.996;2023-05-07T11:15:42;23.30;97.00
21302;DHT22;10810;48.270;9.996;2023-05-07T11:18:14;23.20;93.50
21302;DHT22;10810;48.270;9.996;2023-05-07T11:20:49;22.90;92.40
21302;DHT22;10810;48.270;9.996;2023-05-07T11:26:43;23.60;99.70
21302;DHT22;10810;48.270;9.996;2023-05-07T11:29:11;23.80;96.80
21302;DHT22;10810;48.270;9.996;2023-05-07T11:31:40;23.80;95.80
21302;DHT22;10810;48.270;9.996;2023-05-07T11:34:08;23.60;95.40
21302;DHT22;10810;48.270;9.996;2023-05-07T11:36:37;23.50;96.10
21302;DHT22;10810;48.270;9.996;2023-05-07T11:39:24;23.30;93.80
21302;DHT22;10810;48.270;9.996;2023-05-07T11:41:51;23.10;93.50
21302;DHT22;10810;48.270;9.996;2023-05-07T11:44:18;23.10;95.90
21302;DHT22;10810;48.270;9.996;2023-05-07T11:46:47;22.90;96.10
21302;DHT22;10810;48.270;9.996;2023-05-07T11:49:15;22.90;97.00
21302;DHT22;10810;48.270;9.996;2023-05-07T11:51:42;22.80;96.10
21302;DHT22;10810;48.270;9.996;2023-05-07T11:54:15;22.80;93.80
21302;DHT22;10810;48.270;9.996;2023-05-07T11:56:44;22.70;94.70
21302;DHT22;10810;48.270;9.996;2023-05-07T11:59:11;22.60;94.70
21302;DHT22;10810;48.270;9.996;2023-05-07T12:01:38;22.60;96.60
21302;DHT22;10810;48.270;9.996;2023-05-07T12:04:07;22.60;96.50
21302;DHT22;10810;48.270;9.996;2023-05-07T12:06:36;22.50;94.80
21302;DHT22;10810;48.270;9.996;2023-05-07T12:09:04;22.40;95.50
21302;DHT22;10810;48.270;9.996;2023-05-07T12:11:33;22.40;95.70
21302;DHT22;10810;48.270;9.996;2023-05-07T12:14:00;22.40;97.00
21302;DHT22;10810;48.270;9.996;2023-05-07T12:16:28;22.40;98.60
21302;DHT22;10810;48.270;9.996;2023-05-07T12:18:55;22.50;95.30
21302;DHT22;10810;48.270;9.996;2023-05-07T12:21:25;22.80;98.60
21302;DHT22;10810;48.270;9.996;2023-05-07T12:23:56;22.90;94.60
21302;DHT22;10810;48.270;9.996;2023-05-07T12:26:25;23.00;94.30
21302;DHT22;10810;48.270;9.996;2023-05-07T12:28:52;23.20;92.00
21302;DHT22;10810;48.270;9.996;2023-05-07T12:31:19;23.20;88.40
21302;DHT22;10810;48.270;9.996;2023-05-07T12:33:47;23.30;90.60
21302;DHT22;10810;48.270;9.996;2023-05-07T12:36:14;23.50;92.00
21302;DHT22;10810;48.270;9.996;2023-05-07T12:38:42;23.70;86.40
21302;DHT22;10810;48.270;9.996;2023-05-07T12:41:10;23.80;84.10
21302;DHT22;10810;48.270;9.996;2023-05-07T12:43:39;23.90;91.00
21302;DHT22;10810;48.270;9.996;2023-05-07T12:46:10;24.00;89.90
21302;DHT22;10810;48.270;9.996;2023-05-07T12:48:43;23.90;83.00
21302;DHT22;10810;48.270;9.996;2023-05-07T12:51:11;23.80;84.50
21302;DHT22;10810;48.270;9.996;2023-05-07T12:53:44;23.70;90.10
21302;DHT22;10810;48.270;9.996;2023-05-07T12:56:11;23.80;87.60
21302;DHT22;10810;48.270;9.996;2023-05-07T12:58:38;23.70;85.60
21302;DHT22;10810;48.270;9.996;2023-05-07T13:01:06;23.50;89.70
21302;DHT22;10810;48.270;9.996;2023-05-07T13:03:37;23.60;89.50
21302;DHT22;10810;48.270;9.996;2023-05-07T13:06:06;23.10;84.50
21302;DHT22;10810;48.270;9.996;2023-05-07T13:08:38;22.60;87.20
21302;DHT22;10810;48.270;9.996;2023-05-07T13:11:08;22.40;88.50
21302;DHT22;10810;48.270;9.996;2023-05-07T13:13:36;22.40;88.70
21302;DHT22;10810;48.270;9.996;2023-05-07T13:16:05;22.50;89.10
21302;DHT22;10810;48.270;9.996;2023-05-07T13:18:35;22.40;87.10
21302;DHT22;10810;48.270;9.996;2023-05-07T13:21:02;22.40;86.80
21302;DHT22;10810;48.270;9.996;2023-05-07T13:23:29;22.40;87.70
21302;DHT22;10810;48.270;9.996;2023-05-07T13:25:58;22.30;87.90
21302;DHT22;10810;48.270;9.996;2023-05-07T13:28:27;22.40;89.10
21302;DHT22;10810;48.270;9.996;2023-05-07T13:30:54;22.50;86.10
21302;DHT22;10810;48.270;9.996;2023-05-07T13:33:21;22.40;87.00
21302;DHT22;10810;48.270;9.996;2023-05-07T13:35:49;22.40;90.70
21302;DHT22;10810;48.270;9.996;2023-05-07T13:38:16;22.70;88.20
21302;DHT22;10810;48.270;9.996;2023-05-07T13:40:45;22.40;85.10
21302;DHT22;10810;48.270;9.996;2023-05-07T13:43:14;22.40;86.40
21302;DHT22;10810;48.270;9.996;2023-05-07T13:45:44;22.10;86.40
21302;DHT22;10810;48.270;9.996;2023-05-07T13:48:13;22.00;87.30
21302;DHT22;10810;48.270;9.996;2023-05-07T13:50:40;22.00;90.00
21302;DHT22;10810;48.270;9.996;2023-05-07T13:53:07;22.20;91.00
21302;DHT22;10810;48.270;9.996;2023-05-07T13:55:35;22.10;87.30
21302;DHT22;10810;48.270;9.996;2023-05-07T13:58:02;21.80;86.90
21302;DHT22;10810;48.270;9.996;2023-05-07T14:00:29;21.70;87.90
21302;DHT22;10810;48.270;9.996;2023-05-07T14:02:58;21.70;87.70
21302;DHT22;10810;48.270;9.996;2023-05-07T14:05:32;21.80;87.60
21302;DHT22;10810;48.270;9.996;2023-05-07T14:08:11;21.60;88.30
21302;DHT22;10810;48.270;9.996;2023-05-07T14:10:40;21.50;88.90
21302;DHT22;10810;48.270;9.996;2023-05-07T14:13:07;21.50;90.10
21302;DHT22;10810;48.270;9.996;2023-05-07T14:15:34;21.60;90.10
21302;DHT22;10810;48.270;9.996;2023-05-07T14:18:18;21.50;90.00
21302;DHT22;10810;48.270;9.996;2023-05-07T14:20:45;21.50;89.00
21302;DHT22;10810;48.270;9.996;2023-05-07T14:23:14;21.40;90.30
21302;DHT22;10810;48.270;9.996;2023-05-07T14:25:44;21.40;92.40
21302;DHT22;10810;48.270;9.996;2023-05-07T14:28:13;21.30;95.30
21302;DHT22;10810;48.270;9.996;2023-05-07T14:30:40;21.30;97.70
21302;DHT22;10810;48.270;9.996;2023-05-07T14:33:07;21.30;99.90
21302;DHT22;10810;48.270;9.996;2023-05-07T14:35:35;21.20;99.90
21302;DHT22;10810;48.270;9.996;2023-05-07T14:38:02;20.40;99.90
21302;DHT22;10810;48.270;9.996;2023-05-07T14:40:30;19.70;99.90
21302;DHT22;10810;48.270;9.996;2023-05-07T14:42:56;19.20;99.90
21302;DHT22;10810;48.270;9.996;2023-05-07T14:45:23;18.60;99.90
21302;DHT22;10810;48.270;9.996;2023-05-07T14:47:50;18.30;99.90
21302;DHT22;10810;48.270;9.996;2023-05-07T14:50:17;18.20;99.90
21302;DHT22;10810;48.270;9.996;2023-05-07T14:52:46;18.20;99.90
21302;DHT22;10810;48.270;9.996;2023-05-07T14:55:15;18.30;99.90
21302;DHT22;10810;48.270;9.996;2023-05-07T14:57:44;18.30;99.90
21302;DHT22;10810;48.270;9.996;2023-05-07T15:00:12;18.30;99.90
21302;DHT22;10810;48.270;9.996;2023-05-07T15:02:41;18.40;99.90
21302;DHT22;10810;48.270;9.996;2023-05-07T15:05:08;18.50;99.90
21302;DHT22;10810;48.270;9.996;2023-05-07T15:07:35;18.40;99.90
21302;DHT22;10810;48.270;9.996;2023-05-07T15:10:08;18.40;99.90
21302;DHT22;10810;48.270;9.996;2023-05-07T15:12:43;18.30;99.90
21302;DHT22;10810;48.270;9.996;2023-05-07T15:15:20;18.20;99.90
21302;DHT22;10810;48.270;9.996;2023-05-07T15:17:47;17.90;99.90
21302;DHT22;10810;48.270;9.996;2023-05-07T15:20:20;17.90;99.90
21302;DHT22;10810;48.270;9.996;2023-05-07T15:22:47;17.70;99.90
21302;DHT22;10810;48.270;9.996;2023-05-07T15:25:16;17.60;99.90
21302;DHT22;10810;48.270;9.996;2023-05-07T15:27:46;17.40;99.90
21302;DHT22;10810;48.270;9.996;2023-05-07T15:30:14;17.40;99.90
21302;DHT22;10810;48.270;9.996;2023-05-07T15:33:27;17.20;99.90
21302;DHT22;10810;48.270;9.996;2023-05-07T15:39:17;17.20;99.90
21302;DHT22;10810;48.270;9.996;2023-05-07T15:42:06;17.30;99.90
21302;DHT22;10810;48.270;9.996;2023-05-07T15:44:57;17.30;99.90
21302;DHT22;10810;48.270;9.996;2023-05-07T15:47:41;16.90;99.90
21302;DHT22;10810;48.270;9.996;2023-05-07T15:50:50;16.40;99.90
21302;DHT22;10810;48.270;9.996;2023-05-07T15:53:47;16.10;99.90
21302;DHT22;10810;48.270;9.996;2023-05-07T15:59:43;15.90;99.90
21302;DHT22;10810;48.270;9.996;2023-05-07T16:02:14;15.60;99.90
21302;DHT22;10810;48.270;9.996;2023-05-07T16:05:05;15.40;99.90
21302;DHT22;10810;48.270;9.996;2023-05-07T16:07:36;15.20;99.90
21302;DHT22;10810;48.270;9.996;2023-05-07T16:10:09;14.90;99.90
21302;DHT22;10810;48.270;9.996;2023-05-07T16:12:38;14.60;99.90
21302;DHT22;10810;48.270;9.996;2023-05-07T16:15:23;14.50;99.90
21302;DHT22;10810;48.270;9.996;2023-05-07T16:17:50;14.40;99.90
21302;DHT22;10810;48.270;9.996;2023-05-07T16:20:51;14.30;99.90
21302;DHT22;10810;48.270;9.996;2023-05-07T16:23:19;14.40;99.90
21302;DHT22;10810;48.270;9.996;2023-05-07T16:26:10;14.40;99.90
21302;DHT22;10810;48.270;9.996;2023-05-07T16:28:41;14.20;99.90
21302;DHT22;10810;48.270;9.996;2023-05-07T16:31:21;14.20;99.90
21302;DHT22;10810;48.270;9.996;2023-05-07T16:34:10;14.20;99.90
21302;DHT22;10810;48.270;9.996;2023-05-07T16:37:02;14.10;99.90
21302;DHT22;10810;48.270;9.996;2023-05-07T16:40:48;14.10;99.90
21302;DHT22;10810;48.270;9.996;2023-05-07T16:43:53;14.10;99.90
21302;DHT22;10810;48.270;9.996;2023-05-07T16:46:25;14.20;99.90
21302;DHT22;10810;48.270;9.996;2023-05-07T16:49:08;14.30;99.90
21302;DHT22;10810;48.270;9.996;2023-05-07T16:51:37;14.30;99.90
21302;DHT22;10810;48.270;9.996;2023-05-07T16:54:09;14.20;99.90
21302;DHT22;10810;48.270;9.996;2023-05-07T16:56:37;14.40;99.90